Time;durP1;ratioP1;P1;durP2;ratioP2;P2;SDS_P1;SDS_P2;PMS_P1;PMS_P2;Temp;Humidity;BMP_temperature;BMP_pressure;BME280_temperature;BME280_humidity;BME280_pressure;Samples;Min_cycle;Max_cycle;Signal;HPM_P1;HPM_P2
2023/01/18 00:02:34;;;;;;;53.80;22.70;;;;;;;;;;106217;1284;24234;-78
2023/01/18 00:05:00;;;;;;;54.10;22.20;;;;;;;;;;106337;1283;23265;-75
2023/01/18 00:07:29;;;;;;;60.50;24.30;;;;;;;;;;107187;1254;22494;-75
2023/01/18 00:10:16;;;;;;;57.00;23.00;;;;;;;;;;107045;1256;22527;-82
2023/01/18 00:12:45;;;;;;;49.60;19.90;;;;;;;;;;107265;1272;22537;-77
2023/01/18 00:15:14;;;;;;;44.80;17.40;;;;;;;;;;107260;1271;22538;-75
2023/01/18 00:18:01;;;;;;;51.80;21.80;;;;;;;;;;107142;1256;22643;-79
2023/01/18 00:20:30;;;;;;;44.50;16.50;;;;;;;;;;106923;1274;24046;-78
2023/01/18 00:23:00;;;;;;;41.10;17.20;;;;;;;;;;107076;1274;22620;-80
2023/01/18 00:25:46;;;;;;;44.50;17.40;;;;;;;;;;107154;1273;25351;-75
2023/01/18 00:28:43;;;;;;;;;;;;;;;;;;;;;
2023/01/18 00:31:22;;;;;;;45.20;15.60;;;;;;;;;;107211;1273;26503;-75
2023/01/18 00:34:13;;;;;;;44.80;16.40;;;;;;;;;;107141;1273;22600;-79
2023/01/18 00:36:51;;;;;;;;;;;;;;;;;;;;;
2023/01/18 00:40:08;;;;;;;45.20;16.40;;;;;;;;;;107060;1263;23453;-76
2023/01/18 00:45:35;;;;;;;44.50;16.20;;;;;;;;;;107022;1276;25283;-79
2023/01/18 00:48:24;;;;;;;62.80;20.80;;;;;;;;;;107092;1257;22642;-78
2023/01/18 00:50:56;;;;;;;54.00;21.70;;;;;;;;;;107119;1275;24194;-79
2023/01/18 00:53:48;;;;;;;54.50;21.90;;;;;;;;;;107111;1275;23452;-79
2023/01/18 00:56:29;;;;;;;50.00;18.00;;;;;;;;;;107070;1275;22530;-76
2023/01/18 00:58:55;;;;;;;55.10;20.00;;;;;;;;;;106988;1258;25499;-80
2023/01/18 01:01:24;;;;;;;45.70;19.10;;;;;;;;;;106871;1276;24296;-79
2023/01/18 01:07:02;;;;;;;51.00;19.60;;;;;;;;;;106885;1251;24225;-76
2023/01/18 01:09:50;;;;;;;54.00;19.50;;;;;;;;;;107128;1275;23928;-76
2023/01/18 01:27:16;;;;;;;76.30;27.10;;;;;;;;;;107060;1251;23828;-83
2023/01/18 01:29:45;;;;;;;69.60;27.10;;;;;;;;;;107144;1274;24180;-79
2023/01/18 01:32:31;;;;;;;70.90;27.10;;;;;;;;;;107149;1274;22656;-82
2023/01/18 01:35:22;;;;;;;75.30;29.70;;;;;;;;;;107163;1273;23155;-81
2023/01/18 01:37:58;;;;;;;77.10;28.20;;;;;;;;;;107138;1255;22563;-82
2023/01/18 01:40:24;;;;;;;76.00;29.40;;;;;;;;;;106919;1275;25287;-75
2023/01/18 01:43:35;;;;;;;80.60;29.50;;;;;;;;;;106889;1275;24203;-76
2023/01/18 01:46:20;;;;;;;80.30;30.20;;;;;;;;;;106877;1275;22657;-78
2023/01/18 01:48:47;;;;;;;78.70;29.60;;;;;;;;;;106883;1260;22630;-80
2023/01/18 01:51:19;;;;;;;78.30;29.40;;;;;;;;;;106895;1277;22530;-82
2023/01/18 01:54:08;;;;;;;66.40;26.70;;;;;;;;;;106868;1277;22604;-78
2023/01/18 01:56:57;;;;;;;;;;;;;;;;;;;;;
2023/01/18 01:59:48;;;;;;;72.50;28.90;;;;;;;;;;106735;1260;25406;-79
2023/01/18 02:02:17;;;;;;;70.00;27.00;;;;;;;;;;106864;1278;23620;-77
2023/01/18 02:04:52;;;;;;;66.70;27.10;;;;;;;;;;106777;1278;22545;-82
2023/01/18 02:07:29;;;;;;;61.30;25.20;;;;;;;;;;106812;1278;22576;-78
2023/01/18 02:10:35;;;;;;;64.90;25.60;;;;;;;;;;106840;1277;23923;-81
2023/01/18 02:13:25;;;;;;;68.70;26.60;;;;;;;;;;106837;1277;22638;-80
2023/01/18 02:19:06;;;;;;;71.50;26.50;;;;;;;;;;106842;1259;22777;-78
2023/01/18 02:22:14;;;;;;;69.30;28.00;;;;;;;;;;106835;1278;22625;-77
2023/01/18 02:24:44;;;;;;;69.50;28.00;;;;;;;;;;106823;1278;24270;-79
2023/01/18 02:27:19;;;;;;;68.60;27.00;;;;;;;;;;107094;1275;25394;-78
2023/01/18 02:30:13;;;;;;;68.50;27.20;;;;;;;;;;107118;1254;25297;-81
2023/01/18 02:32:43;;;;;;;68.50;27.20;;;;;;;;;;107161;1273;22536;-81
2023/01/18 02:35:39;;;;;;;;;;;;;;;;;;;;;
2023/01/18 02:38:47;;;;;;;61.80;26.20;;;;;;;;;;107144;1273;25404;-79
2023/01/18 02:47:37;;;;;;;64.20;25.20;;;;;;;;;;107191;1274;23098;-82
2023/01/18 02:50:21;;;;;;;68.30;26.70;;;;;;;;;;106985;1257;25436;-78
2023/01/18 02:53:28;;;;;;;65.00;27.20;;;;;;;;;;107172;1273;22508;-76
2023/01/18 02:57:11;;;;;;;69.40;26.50;;;;;;;;;;107214;1273;24240;-77
2023/01/18 03:00:12;;;;;;;64.00;25.00;;;;;;;;;;107079;1264;23864;-78
2023/01/18 03:02:59;;;;;;;62.70;25.10;;;;;;;;;;107146;1274;25354;-78
2023/01/18 03:05:50;;;;;;;66.80;28.30;;;;;;;;;;107080;1274;22533;-81
2023/01/18 03:08:56;;;;;;;65.90;27.00;;;;;;;;;;107050;1274;23126;-81
2023/01/18 03:11:37;;;;;;;64.60;27.10;;;;;;;;;;107244;1253;25300;-79
2023/01/18 03:14:06;;;;;;;63.80;26.90;;;;;;;;;;107182;1273;22517;-77
2023/01/18 03:16:56;;;;;;;62.30;27.00;;;;;;;;;;107240;1273;22543;-76
2023/01/18 03:26:53;;;;;;;72.40;29.40;;;;;;;;;;107059;1274;22618;-75
2023/01/18 03:34:58;;;;;;;75.30;28.60;;;;;;;;;;107265;1261;24350;-77
2023/01/18 03:37:52;;;;;;;62.90;24.00;;;;;;;;;;107212;1273;25566;-83
2023/01/18 03:40:34;;;;;;;64.60;24.10;;;;;;;;;;107231;1273;25245;-76
2023/01/18 03:43:22;;;;;;;65.40;25.80;;;;;;;;;;106822;1260;22603;-76
2023/01/18 03:46:11;;;;;;;67.10;25.60;;;;;;;;;;106663;1278;22541;-78
2023/01/18 03:48:58;;;;;;;68.90;24.80;;;;;;;;;;106807;1275;22538;-77
2023/01/18 03:52:23;;;;;;;71.70;27.80;;;;;;;;;;106883;1278;25318;-79
2023/01/18 03:55:15;;;;;;;70.10;25.60;;;;;;;;;;106818;1278;25352;-76
2023/01/18 03:58:08;;;;;;;62.80;26.10;;;;;;;;;;106834;1262;25287;-79
2023/01/18 04:00:38;;;;;;;58.30;25.40;;;;;;;;;;106836;1278;22531;-82
2023/01/18 04:03:48;;;;;;;64.80;25.70;;;;;;;;;;106465;1264;22550;-78
2023/01/18 04:06:56;;;;;;;61.50;26.30;;;;;;;;;;106494;1282;22660;-76
2023/01/18 04:09:48;;;;;;;64.50;26.60;;;;;;;;;;106532;1265;22692;-79
2023/01/18 04:12:58;;;;;;;64.10;24.30;;;;;;;;;;106618;1259;22551;-79
2023/01/18 04:15:24;;;;;;;64.50;26.00;;;;;;;;;;106882;1278;25363;-76
2023/01/18 04:18:03;;;;;;;62.10;26.20;;;;;;;;;;106816;1278;22588;-81
2023/01/18 04:20:29;;;;;;;67.60;27.20;;;;;;;;;;106742;1278;24808;-76
2023/01/18 04:22:55;;;;;;;70.00;25.90;;;;;;;;;;106593;1263;24353;-76
2023/01/18 04:25:24;;;;;;;63.00;24.90;;;;;;;;;;106587;1279;24361;-78
2023/01/18 04:28:11;;;;;;;60.10;23.40;;;;;;;;;;106773;1279;22533;-79
2023/01/18 04:30:58;;;;;;;56.30;24.80;;;;;;;;;;106784;1279;22530;-81
2023/01/18 04:33:28;;;;;;;61.60;23.80;;;;;;;;;;106610;1262;22536;-76
2023/01/18 04:35:58;;;;;;;58.40;23.60;;;;;;;;;;107200;1269;22574;-81
2023/01/18 04:38:37;;;;;;;;;;;;;;;;;;;;;
2023/01/18 04:41:42;;;;;;;58.90;23.80;;;;;;;;;;107277;1273;22530;-78
2023/01/18 04:44:11;;;;;;;56.10;23.70;;;;;;;;;;107075;1267;22536;-78
2023/01/18 04:47:19;;;;;;;52.70;22.50;;;;;;;;;;106476;1264;22534;-76
2023/01/18 04:50:09;;;;;;;57.10;22.20;;;;;;;;;;106515;1281;25541;-80
2023/01/18 04:52:55;;;;;;;57.60;23.70;;;;;;;;;;106414;1257;23045;-80
2023/01/18 04:55:24;;;;;;;51.10;22.30;;;;;;;;;;106830;1279;22543;-76
2023/01/18 04:58:26;;;;;;;;;;;;;;;;;;;;;
2023/01/18 05:01:02;;;;;;;57.40;22.50;;;;;;;;;;106733;1279;25338;-79
2023/01/18 05:03:36;;;;;;;48.50;21.20;;;;;;;;;;106779;1279;25369;-77
2023/01/18 05:06:07;;;;;;;45.10;20.80;;;;;;;;;;106799;1279;22523;-78
2023/01/18 05:08:40;;;;;;;50.70;20.20;;;;;;;;;;106685;1279;22544;-77
2023/01/18 05:11:31;;;;;;;49.90;20.70;;;;;;;;;;106759;1279;24385;-82
2023/01/18 05:14:20;;;;;;;47.10;21.40;;;;;;;;;;106732;1262;24193;-78
2023/01/18 05:16:58;;;;;;;46.30;21.40;;;;;;;;;;106723;1275;22527;-78
2023/01/18 05:19:29;;;;;;;46.50;21.40;;;;;;;;;;107105;1275;25464;-76
2023/01/18 05:22:18;;;;;;;48.80;21.40;;;;;;;;;;107147;1255;23763;-78
2023/01/18 05:25:26;;;;;;;54.20;22.80;;;;;;;;;;107173;1251;22523;-80
2023/01/18 05:28:15;;;;;;;52.00;21.60;;;;;;;;;;107180;1273;22578;-78
2023/01/18 05:30:43;;;;;;;48.10;21.00;;;;;;;;;;107208;1273;22574;-81
2023/01/18 05:33:39;;;;;;;45.50;21.50;;;;;;;;;;107191;1269;26726;-76
2023/01/18 05:36:05;;;;;;;47.60;22.00;;;;;;;;;;107132;1257;25474;-79
2023/01/18 05:38:34;;;;;;;54.30;25.40;;;;;;;;;;107216;1272;25287;-78
2023/01/18 05:41:12;;;;;;;49.50;23.50;;;;;;;;;;106991;1273;24375;-82
2023/01/18 05:43:41;;;;;;;52.40;25.40;;;;;;;;;;107178;1273;25236;-81
2023/01/18 05:46:27;;;;;;;54.30;25.80;;;;;;;;;;107110;1271;22527;-76
2023/01/18 05:49:00;;;;;;;47.80;21.00;;;;;;;;;;107119;1274;25357;-79
2023/01/18 05:51:34;;;;;;;54.80;25.00;;;;;;;;;;106977;1274;24377;-80
2023/01/18 05:54:32;;;;;;;49.60;22.30;;;;;;;;;;107102;1274;25285;-78
2023/01/18 05:57:18;;;;;;;62.00;27.00;;;;;;;;;;107148;1255;25114;-82
2023/01/18 05:59:52;;;;;;;54.70;24.30;;;;;;;;;;107222;1270;23873;-76
2023/01/18 06:02:23;;;;;;;57.40;25.10;;;;;;;;;;107178;1274;25230;-79
2023/01/18 06:05:31;;;;;;;58.80;26.10;;;;;;;;;;107146;1274;25408;-77
2023/01/18 06:08:22;;;;;;;;;;;;;;;;;;;;;
2023/01/18 06:10:58;;;;;;;56.50;25.00;;;;;;;;;;107075;1274;22527;-77
2023/01/18 06:13:56;;;;;;;55.30;24.00;;;;;;;;;;107095;1269;23290;-79
2023/01/18 06:17:13;;;;;;;;;;;;;;;;;;;;;
2023/01/18 06:20:07;;;;;;;48.70;23.20;;;;;;;;;;107017;1274;22816;-76
2023/01/18 06:22:36;;;;;;;48.70;23.20;;;;;;;;;;106741;1275;22536;-78
2023/01/18 06:25:26;;;;;;;51.30;23.00;;;;;;;;;;106906;1266;25468;-78
2023/01/18 06:28:26;;;;;;;;;;;;;;;;;;;;;
2023/01/18 06:31:36;;;;;;;58.70;26.20;;;;;;;;;;106872;1277;22543;-82
2023/01/18 06:34:08;;;;;;;57.10;25.20;;;;;;;;;;106882;1277;22526;-76
2023/01/18 06:37:14;;;;;;;52.70;24.20;;;;;;;;;;106844;1259;22623;-76
2023/01/18 06:40:04;;;;;;;50.80;24.40;;;;;;;;;;106876;1277;25580;-77
2023/01/18 06:42:53;;;;;;;58.10;24.70;;;;;;;;;;106595;1277;22520;-75
2023/01/18 06:45:39;;;;;;;50.10;24.10;;;;;;;;;;106830;1261;24262;-76
2023/01/18 06:48:08;;;;;;;49.60;24.80;;;;;;;;;;106818;1260;22815;-77
2023/01/18 06:50:59;;;;;;;52.80;24.80;;;;;;;;;;106588;1276;22533;-77
2023/01/18 06:53:49;;;;;;;56.50;26.60;;;;;;;;;;106776;1277;22541;-82
2023/01/18 06:56:15;;;;;;;51.00;24.40;;;;;;;;;;106812;1267;25332;-77
2023/01/18 06:59:27;;;;;;;52.70;24.40;;;;;;;;;;106990;1259;22620;-77
2023/01/18 07:02:19;;;;;;;53.90;26.50;;;;;;;;;;106856;1278;22537;-78
2023/01/18 07:05:06;;;;;;;62.50;28.20;;;;;;;;;;106913;1278;22541;-80
2023/01/18 07:07:56;;;;;;;62.40;27.90;;;;;;;;;;106794;1278;22541;-77
2023/01/18 07:10:25;;;;;;;59.10;26.20;;;;;;;;;;106800;1278;25224;-80
2023/01/18 07:13:11;;;;;;;56.80;23.30;;;;;;;;;;106848;1278;22612;-78
2023/01/18 07:16:01;;;;;;;51.40;21.60;;;;;;;;;;106762;1257;24195;-76
2023/01/18 07:18:45;;;;;;;;;;;;;;;;;;;;;
2023/01/18 07:21:48;;;;;;;46.80;22.80;;;;;;;;;;106872;1278;22574;-79
2023/01/18 07:24:27;;;;;;;;;;;;;;;;;;;;;
2023/01/18 07:27:17;;;;;;;;;;;;;;;;;;;;;
2023/01/18 07:29:46;;;;;;;53.30;24.80;;;;;;;;;;106804;1260;22582;-77
2023/01/18 07:32:23;;;;;;;62.80;26.70;;;;;;;;;;106874;1278;22529;-76
2023/01/18 07:35:11;;;;;;;;;;;;;;;;;;;;;
2023/01/18 07:37:42;;;;;;;83.90;38.20;;;;;;;;;;106820;1278;22537;-78
2023/01/18 07:40:27;;;;;;;;;;;;;;;;;;;;;
2023/01/18 07:43:36;;;;;;;91.50;40.40;;;;;;;;;;107067;1275;22530;-82
2023/01/18 07:46:03;;;;;;;92.90;40.80;;;;;;;;;;107067;1275;25739;-82
2023/01/18 07:48:33;;;;;;;86.30;39.90;;;;;;;;;;107121;1256;24301;-76
2023/01/18 07:51:38;;;;;;;71.50;33.00;;;;;;;;;;107196;1253;22538;-78
2023/01/18 07:54:07;;;;;;;58.20;27.70;;;;;;;;;;107178;1272;22525;-81
2023/01/18 07:56:33;;;;;;;56.60;25.00;;;;;;;;;;107069;1274;22618;-84
2023/01/18 07:59:32;;;;;;;;;;;;;;;;;;;;;
2023/01/18 08:02:11;;;;;;;56.70;25.20;;;;;;;;;;107097;1270;25431;-80
2023/01/18 08:04:57;;;;;;;54.80;26.70;;;;;;;;;;106936;1275;25413;-80
2023/01/18 08:07:27;;;;;;;64.30;27.80;;;;;;;;;;107091;1275;25403;-80
2023/01/18 08:10:17;;;;;;;69.90;29.60;;;;;;;;;;107216;1260;22531;-78
2023/01/18 08:13:07;;;;;;;68.00;31.30;;;;;;;;;;107104;1274;22655;-82
2023/01/18 08:15:56;;;;;;;62.40;28.30;;;;;;;;;;107151;1274;22538;-81
2023/01/18 08:18:46;;;;;;;64.40;28.10;;;;;;;;;;107145;1274;22584;-77
2023/01/18 08:21:33;;;;;;;56.20;25.70;;;;;;;;;;107202;1274;24226;-82
2023/01/18 08:24:07;;;;;;;61.60;26.70;;;;;;;;;;107157;1274;22524;-81
2023/01/18 08:26:33;;;;;;;59.40;27.90;;;;;;;;;;107126;1274;22483;-78
2023/01/18 08:28:59;;;;;;;60.40;27.10;;;;;;;;;;107174;1274;25224;-78
2023/01/18 08:31:29;;;;;;;61.00;28.00;;;;;;;;;;107077;1275;22546;-84
2023/01/18 08:34:19;;;;;;;68.90;29.30;;;;;;;;;;107076;1271;24199;-82
2023/01/18 08:37:16;;;;;;;69.10;29.90;;;;;;;;;;107052;1275;22530;-83
2023/01/18 08:39:45;;;;;;;68.00;28.00;;;;;;;;;;107036;1275;22540;-80
2023/01/18 08:42:33;;;;;;;64.10;30.20;;;;;;;;;;107176;1260;22528;-81
2023/01/18 08:45:05;;;;;;;75.10;34.90;;;;;;;;;;107045;1274;22524;-79
2023/01/18 08:47:39;;;;;;;70.40;33.30;;;;;;;;;;107212;1272;22539;-84
2023/01/18 08:50:28;;;;;;;68.90;31.40;;;;;;;;;;107233;1274;22666;-81
2023/01/18 08:53:46;;;;;;;57.80;28.20;;;;;;;;;;107129;1257;25346;-80
2023/01/18 08:56:16;;;;;;;59.10;27.60;;;;;;;;;;107014;1275;25490;-84
2023/01/18 08:58:44;;;;;;;54.30;26.60;;;;;;;;;;107158;1275;25502;-77
2023/01/18 09:01:42;;;;;;;60.80;28.30;;;;;;;;;;107172;1251;24318;-82
2023/01/18 09:05:06;;;;;;;53.60;24.20;;;;;;;;;;107342;1274;23042;-82
2023/01/18 09:07:49;;;;;;;;;;;;;;;;;;;;;
2023/01/18 09:10:50;;;;;;;65.20;31.40;;;;;;;;;;107157;1274;25001;-79
2023/01/18 09:14:17;;;;;;;;;;;;;;;;;;;;;
2023/01/18 09:17:04;;;;;;;64.70;30.00;;;;;;;;;;106988;1279;22557;-78
2023/01/18 09:19:39;;;;;;;63.00;29.80;;;;;;;;;;106708;1279;22997;-83
2023/01/18 09:22:12;;;;;;;60.60;30.40;;;;;;;;;;106659;1272;24037;-81
2023/01/18 09:25:13;;;;;;;;;;;;;;;;;;;;;
2023/01/18 09:31:25;;;;;;;53.40;25.40;;;;;;;;;;106930;1278;22543;-83
2023/01/18 09:34:17;;;;;;;58.40;28.30;;;;;;;;;;106911;1264;24183;-82
2023/01/18 09:36:51;;;;;;;60.60;30.20;;;;;;;;;;106857;1278;22519;-84
2023/01/18 09:39:19;;;;;;;55.00;26.60;;;;;;;;;;106887;1278;22529;-83
2023/01/18 09:41:51;;;;;;;59.90;28.00;;;;;;;;;;106797;1278;23333;-83
2023/01/18 09:44:39;;;;;;;63.90;29.50;;;;;;;;;;106815;1278;25526;-82
2023/01/18 09:47:24;;;;;;;56.50;28.50;;;;;;;;;;106962;1279;25251;-81
2023/01/18 09:53:33;;;;;;;51.30;23.90;;;;;;;;;;106671;1255;24200;-84
2023/01/18 09:56:35;;;;;;;49.00;24.00;;;;;;;;;;106989;1275;24210;-78
2023/01/18 09:59:40;;;;;;;51.00;25.20;;;;;;;;;;107115;1275;25287;-77
2023/01/18 10:02:38;;;;;;;47.80;25.30;;;;;;;;;;106875;1278;23245;-82
2023/01/18 10:05:35;;;;;;;51.30;25.00;;;;;;;;;;107094;1260;22536;-77
2023/01/18 10:08:33;;;;;;;;;;;;;;;;;;;;;
2023/01/18 10:11:26;;;;;;;56.00;26.50;;;;;;;;;;106520;1285;22574;-79
2023/01/18 10:14:18;;;;;;;57.00;26.60;;;;;;;;;;106403;1285;22668;-81
2023/01/18 10:17:19;;;;;;;58.50;28.50;;;;;;;;;;106395;1285;22529;-77
2023/01/18 10:19:47;;;;;;;66.30;30.90;;;;;;;;;;106554;1285;25343;-80
2023/01/18 10:22:42;;;;;;;61.50;31.00;;;;;;;;;;106422;1285;24266;-81
2023/01/18 10:25:40;;;;;;;68.60;32.80;;;;;;;;;;105969;1286;22537;-81
2023/01/18 10:28:40;;;;;;;54.30;27.00;;;;;;;;;;106347;1286;22651;-81
2023/01/18 10:31:36;;;;;;;52.50;26.60;;;;;;;;;;106373;1286;25338;-78
2023/01/18 10:34:22;;;;;;;47.80;24.30;;;;;;;;;;106525;1262;22792;-81
2023/01/18 10:37:03;;;;;;;;;;;;;;;;;;;;;
2023/01/18 10:40:06;;;;;;;45.40;24.10;;;;;;;;;;106841;1280;22538;-80
2023/01/18 10:42:58;;;;;;;46.00;24.10;;;;;;;;;;106813;1280;22535;-81
2023/01/18 10:45:55;;;;;;;42.60;22.40;;;;;;;;;;106571;1281;24283;-81
2023/01/18 10:48:50;;;;;;;;;;;;;;;;;;;;;
2023/01/18 10:52:00;;;;;;;37.70;20.10;;;;;;;;;;106897;1276;23881;-77
2023/01/18 10:54:49;;;;;;;;;;;;;;;;;;;;;
2023/01/18 10:57:46;;;;;;;38.90;19.50;;;;;;;;;;107378;1251;24190;-81
2023/01/18 11:00:26;;;;;;;38.10;18.20;;;;;;;;;;107126;1274;24925;-80
2023/01/18 11:02:53;;;;;;;34.90;17.10;;;;;;;;;;107249;1274;22611;-79
2023/01/18 11:05:36;;;;;;;;;;;;;;;;;;;;;
2023/01/18 11:08:34;;;;;;;34.40;16.80;;;;;;;;;;106983;1275;23382;-82
2023/01/18 11:11:22;;;;;;;34.50;17.40;;;;;;;;;;106574;1281;25351;-79
2023/01/18 11:14:11;;;;;;;32.40;18.00;;;;;;;;;;106528;1273;22665;-79
2023/01/18 11:17:17;;;;;;;38.40;19.30;;;;;;;;;;106754;1262;22495;-82
2023/01/18 11:20:04;;;;;;;42.30;19.80;;;;;;;;;;106832;1279;22551;-84
2023/01/18 11:22:58;;;;;;;39.70;20.00;;;;;;;;;;106847;1279;24099;-82
2023/01/18 11:25:45;;;;;;;44.10;20.50;;;;;;;;;;106852;1260;25336;-83
2023/01/18 11:28:51;;;;;;;44.30;22.00;;;;;;;;;;106745;1279;22554;-79
2023/01/18 11:31:27;;;;;;;54.70;26.10;;;;;;;;;;106794;1277;22541;-78
2023/01/18 11:34:59;;;;;;;;;;;;;;;;;;;;;
2023/01/18 11:38:25;;;;;;;53.60;24.40;;;;;;;;;;106521;1277;22558;-84
2023/01/18 11:40:37;;;;;;;53.90;24.50;;;;;;;;;;105123;1286;25444;-80
2023/01/18 11:50:46;;;;;;;;;;;;;;;;;;;;;
2023/01/18 11:53:22;;;;;;;49.10;22.50;;;;;;;;;;106017;1289;22560;-83
2023/01/18 11:56:21;;;;;;;48.90;23.80;;;;;;;;;;105947;1265;22824;-82
2023/01/18 11:59:21;;;;;;;43.70;20.70;;;;;;;;;;105872;1294;24261;-81
2023/01/18 12:02:18;;;;;;;45.10;20.40;;;;;;;;;;105776;1294;23452;-82
2023/01/18 12:05:09;;;;;;;45.50;22.10;;;;;;;;;;105889;1294;22552;-84
2023/01/18 12:08:25;;;;;;;51.90;24.60;;;;;;;;;;105847;1274;22548;-82
2023/01/18 12:11:28;;;;;;;54.10;29.70;;;;;;;;;;105256;1295;22794;-83
2023/01/18 12:14:40;;;;;;;50.00;25.80;;;;;;;;;;105576;1296;25424;-85
2023/01/18 12:17:41;;;;;;;54.80;23.20;;;;;;;;;;105524;1296;24644;-82
2023/01/18 12:20:55;;;;;;;55.40;22.80;;;;;;;;;;105859;1292;25364;-82
2023/01/18 12:24:02;;;;;;;57.50;24.60;;;;;;;;;;106007;1290;25346;-82
2023/01/18 12:27:56;;;;;;;53.50;23.50;;;;;;;;;;106084;1275;24984;-81
2023/01/18 12:31:03;;;;;;;51.30;20.40;;;;;;;;;;106208;1285;25294;-85
2023/01/18 12:33:42;;;;;;;45.00;20.10;;;;;;;;;;106225;1286;22546;-82
2023/01/18 12:36:41;;;;;;;43.50;19.70;;;;;;;;;;106432;1281;25239;-84
2023/01/18 12:39:37;;;;;;;54.40;22.00;;;;;;;;;;106390;1283;25417;-81
2023/01/18 12:42:31;;;;;;;50.70;22.60;;;;;;;;;;106334;1283;25293;-81
2023/01/18 12:45:25;;;;;;;52.60;22.20;;;;;;;;;;106430;1283;24212;-81
2023/01/18 12:48:12;;;;;;;51.50;22.90;;;;;;;;;;107289;1257;22491;-80
2023/01/18 12:50:42;;;;;;;55.50;24.40;;;;;;;;;;107281;1273;22530;-78
2023/01/18 12:53:48;;;;;;;;;;;;;;;;;;;;;
2023/01/18 12:57:06;;;;;;;;;;;;;;;;;;;;;
2023/01/18 13:00:15;;;;;;;53.70;24.00;;;;;;;;;;107531;1265;24199;-79
2023/01/18 13:02:52;;;;;;;53.30;25.30;;;;;;;;;;107559;1274;22537;-80
2023/01/18 13:05:42;;;;;;;52.00;23.60;;;;;;;;;;107194;1275;25239;-79
2023/01/18 13:08:34;;;;;;;55.50;25.70;;;;;;;;;;107204;1264;24039;-83
2023/01/18 13:11:19;;;;;;;;;;;;;;;;;;;;;
2023/01/18 13:14:11;;;;;;;67.10;30.40;;;;;;;;;;107255;1273;22517;-80
2023/01/18 13:17:03;;;;;;;69.80;32.50;;;;;;;;;;107095;1273;24278;-82
2023/01/18 13:20:10;;;;;;;54.00;24.20;;;;;;;;;;107134;1265;22534;-84
2023/01/18 13:22:54;;;;;;;;;;;;;;;;;;;;;
2023/01/18 13:25:49;;;;;;;40.60;17.00;;;;;;;;;;107037;1275;25432;-80
2023/01/18 13:28:37;;;;;;;;;;;;;;;;;;;;;
2023/01/18 13:31:29;;;;;;;43.90;17.20;;;;;;;;;;107217;1273;22527;-83
2023/01/18 13:34:03;;;;;;;61.70;26.80;;;;;;;;;;107152;1251;22541;-82
2023/01/18 13:36:45;;;;;;;57.60;24.20;;;;;;;;;;107234;1273;22541;-80
2023/01/18 13:39:38;;;;;;;42.00;16.00;;;;;;;;;;107143;1256;22562;-79
2023/01/18 13:42:22;;;;;;;39.00;16.80;;;;;;;;;;107098;1274;22522;-81
2023/01/18 13:44:49;;;;;;;71.60;29.20;;;;;;;;;;106993;1274;22510;-79
2023/01/18 13:47:45;;;;;;;72.80;29.30;;;;;;;;;;107128;1274;22545;-80
2023/01/18 13:50:38;;;;;;;65.70;30.20;;;;;;;;;;107131;1260;22569;-83
2023/01/18 13:53:14;;;;;;;47.80;20.10;;;;;;;;;;107283;1273;24233;-81
2023/01/18 13:56:16;;;;;;;62.00;26.30;;;;;;;;;;107213;1273;22547;-78
2023/01/18 13:59:33;;;;;;;56.90;22.40;;;;;;;;;;107147;1256;22700;-81
2023/01/18 14:02:12;;;;;;;74.50;32.60;;;;;;;;;;107076;1273;22534;-78
2023/01/18 14:04:42;;;;;;;63.80;23.90;;;;;;;;;;106988;1274;22533;-79
2023/01/18 14:07:21;;;;;;;57.10;23.00;;;;;;;;;;107294;1274;22542;-81
2023/01/18 14:10:09;;;;;;;50.90;21.40;;;;;;;;;;107272;1254;25340;-78
2023/01/18 14:12:50;;;;;;;59.50;23.50;;;;;;;;;;107252;1273;26135;-77
2023/01/18 14:15:31;;;;;;;80.90;30.10;;;;;;;;;;107207;1255;24193;-78
2023/01/18 14:18:18;;;;;;;75.40;28.20;;;;;;;;;;106883;1271;25271;-79
2023/01/18 14:20:53;;;;;;;70.50;28.30;;;;;;;;;;107414;1260;22612;-77
2023/01/18 14:23:25;;;;;;;67.50;27.40;;;;;;;;;;107133;1273;22542;-78
2023/01/18 14:26:19;;;;;;;72.40;28.60;;;;;;;;;;106966;1272;23204;-78
2023/01/18 14:29:14;;;;;;;81.60;29.10;;;;;;;;;;107176;1269;22540;-79
2023/01/18 14:32:02;;;;;;;71.90;26.40;;;;;;;;;;107160;1263;25189;-79
2023/01/18 14:34:28;;;;;;;70.70;26.00;;;;;;;;;;107215;1270;22530;-78
2023/01/18 14:37:18;;;;;;;64.00;22.10;;;;;;;;;;107417;1270;25322;-81
2023/01/18 14:40:37;;;;;;;64.90;23.90;;;;;;;;;;107311;1251;22500;-81
2023/01/18 14:43:23;;;;;;;75.70;27.30;;;;;;;;;;107425;1267;24314;-81
2023/01/18 14:46:43;;;;;;;77.40;27.80;;;;;;;;;;107106;1270;24337;-77
2023/01/18 14:49:33;;;;;;;90.90;33.10;;;;;;;;;;106469;1281;23898;-81
2023/01/18 14:52:00;;;;;;;75.20;28.40;;;;;;;;;;106745;1279;22612;-77
2023/01/18 14:55:13;;;;;;;72.40;27.90;;;;;;;;;;106814;1279;22652;-80
2023/01/18 14:57:49;;;;;;;72.00;27.10;;;;;;;;;;106868;1279;22534;-81
2023/01/18 15:00:32;;;;;;;;;;;;;;;;;;;;;
2023/01/18 15:03:11;;;;;;;94.20;39.10;;;;;;;;;;106748;1279;22537;-84
2023/01/18 15:05:43;;;;;;;265.70;102.70;;;;;;;;;;106565;1272;22559;-78
2023/01/18 15:08:18;;;;;;;188.70;57.80;;;;;;;;;;106518;1279;25385;-80
2023/01/18 15:11:25;;;;;;;274.70;74.40;;;;;;;;;;106495;1261;22538;-79
2023/01/18 15:13:53;;;;;;;337.90;94.40;;;;;;;;;;110239;1279;22158;-77
2023/01/18 15:16:23;;;;;;;141.80;41.90;;;;;;;;;;110245;1276;22171;-77
2023/01/18 15:18:54;;;;;;;70.90;23.80;;;;;;;;;;110034;1277;22262;-78
2023/01/18 15:21:22;;;;;;;63.60;22.60;;;;;;;;;;110189;1257;22152;-77
2023/01/18 15:23:56;;;;;;;74.30;24.10;;;;;;;;;;110138;1275;22132;-77
2023/01/18 15:26:32;;;;;;;88.90;29.60;;;;;;;;;;110523;1275;22147;-78
2023/01/18 15:29:08;;;;;;;94.20;32.00;;;;;;;;;;110476;1275;22113;-78
2023/01/18 15:31:34;;;;;;;73.60;25.80;;;;;;;;;;110576;1260;22818;-78
2023/01/18 15:34:04;;;;;;;74.20;23.80;;;;;;;;;;110373;1276;22121;-77
2023/01/18 15:36:30;;;;;;;62.20;24.30;;;;;;;;;;110383;1270;22104;-77
2023/01/18 15:38:56;;;;;;;59.60;20.90;;;;;;;;;;110372;1276;22142;-77
2023/01/18 15:41:24;;;;;;;62.80;20.70;;;;;;;;;;110305;1259;23012;-78
2023/01/18 15:43:53;;;;;;;58.80;20.00;;;;;;;;;;110422;1275;22138;-78
2023/01/18 15:46:20;;;;;;;58.50;19.80;;;;;;;;;;110508;1274;22131;-79
2023/01/18 15:48:56;;;;;;;56.70;19.80;;;;;;;;;;110612;1275;22145;-79
2023/01/18 15:51:56;;;;;;;60.10;21.50;;;;;;;;;;110509;1254;22189;-75
2023/01/18 15:54:26;;;;;;;64.60;21.50;;;;;;;;;;110372;1276;22115;-75
2023/01/18 15:56:56;;;;;;;55.70;19.30;;;;;;;;;;110397;1276;22859;-76
2023/01/18 15:59:25;;;;;;;57.40;20.40;;;;;;;;;;110230;1276;22345;-76
2023/01/18 16:02:06;;;;;;;55.90;20.10;;;;;;;;;;110632;1257;23046;-76
2023/01/18 16:04:32;;;;;;;59.70;21.40;;;;;;;;;;110661;1275;22129;-76
2023/01/18 16:07:18;;;;;;;66.20;21.10;;;;;;;;;;110654;1275;22130;-78
2023/01/18 16:09:45;;;;;;;61.60;23.30;;;;;;;;;;110631;1275;22120;-76
2023/01/18 16:12:30;;;;;;;70.80;22.50;;;;;;;;;;110549;1261;22183;-80
2023/01/18 16:15:02;;;;;;;68.30;20.50;;;;;;;;;;110372;1274;22881;-77
2023/01/18 16:17:33;;;;;;;64.30;21.90;;;;;;;;;;110400;1276;22830;-78
2023/01/18 16:20:00;;;;;;;59.00;20.40;;;;;;;;;;110257;1277;22141;-77
2023/01/18 16:22:34;;;;;;;57.40;21.10;;;;;;;;;;110616;1258;22926;-77
2023/01/18 16:25:19;;;;;;;52.80;20.10;;;;;;;;;;110443;1276;22113;-77
2023/01/18 16:27:48;;;;;;;60.10;20.70;;;;;;;;;;110461;1271;22234;-77
2023/01/18 16:30:20;;;;;;;64.00;21.10;;;;;;;;;;110612;1276;22149;-79
2023/01/18 16:32:47;;;;;;;61.60;21.10;;;;;;;;;;110293;1269;22205;-77
2023/01/18 16:35:14;;;;;;;66.10;23.00;;;;;;;;;;110237;1277;22975;-76
2023/01/18 16:37:43;;;;;;;67.10;23.00;;;;;;;;;;110245;1277;22139;-76
2023/01/18 16:40:13;;;;;;;74.90;26.30;;;;;;;;;;110371;1277;22440;-77
2023/01/18 16:43:00;;;;;;;74.40;25.20;;;;;;;;;;110328;1257;22150;-77
2023/01/18 16:45:41;;;;;;;76.40;25.30;;;;;;;;;;110201;1277;22187;-77
2023/01/18 16:48:12;;;;;;;72.00;25.20;;;;;;;;;;110141;1277;22158;-79
2023/01/18 16:50:53;;;;;;;71.30;25.60;;;;;;;;;;110356;1277;22127;-80
2023/01/18 16:53:19;;;;;;;70.90;25.30;;;;;;;;;;110566;1268;22957;-77
2023/01/18 16:55:51;;;;;;;68.70;24.80;;;;;;;;;;110437;1276;22145;-77
2023/01/18 16:58:19;;;;;;;74.60;23.40;;;;;;;;;;110432;1270;22924;-77
2023/01/18 17:01:04;;;;;;;66.60;24.30;;;;;;;;;;110397;1276;22138;-77
2023/01/18 17:03:35;;;;;;;69.20;23.90;;;;;;;;;;110604;1255;22593;-78
2023/01/18 17:06:04;;;;;;;76.60;26.20;;;;;;;;;;110361;1277;22131;-77
2023/01/18 17:08:31;;;;;;;75.90;25.70;;;;;;;;;;110219;1277;22331;-77
2023/01/18 17:10:57;;;;;;;75.00;25.30;;;;;;;;;;110361;1271;22744;-78
2023/01/18 17:13:36;;;;;;;69.70;25.20;;;;;;;;;;110322;1254;22134;-77
2023/01/18 17:16:23;;;;;;;86.00;30.10;;;;;;;;;;110373;1277;22861;-77
2023/01/18 17:18:49;;;;;;;83.10;29.50;;;;;;;;;;110375;1266;22977;-77
2023/01/18 17:21:36;;;;;;;88.30;31.30;;;;;;;;;;110193;1273;22334;-77